createdAt,value
2023-02-11T00:00:08.536Z,16.93
2023-02-11T00:01:14.315Z,16.64
2023-02-11T00:02:16.275Z,18.59
2023-02-11T00:03:18.397Z,15.85
2023-02-11T00:04:20.435Z,17.29
2023-02-11T00:05:22.405Z,18.13
2023-02-11T00:06:26.818Z,17.24
2023-02-11T00:07:29.857Z,17.42
2023-02-11T00:08:31.736Z,17.48
2023-02-11T00:09:33.622Z,17.78
2023-02-11T00:10:35.600Z,16.61
2023-02-11T00:11:37.518Z,17.27
2023-02-11T00:12:40.572Z,17.51
2023-02-11T00:13:44.170Z,15.99
2023-02-11T00:14:46.325Z,18.07
2023-02-11T00:15:49.305Z,16.85
2023-02-11T00:16:51.921Z,17.03
2023-02-11T00:17:53.872Z,16.77
2023-02-11T00:18:55.967Z,16.78
2023-02-11T00:19:58.538Z,17.56
2023-02-11T00:21:06.645Z,17.14
2023-02-11T00:22:08.685Z,16.64
2023-02-11T00:23:10.952Z,17.20
2023-02-11T00:24:12.996Z,17.61
2023-02-11T00:25:14.899Z,16.30
2023-02-11T00:26:19.787Z,16.67
2023-02-11T00:27:21.998Z,16.26
2023-02-11T00:28:24.154Z,16.86
2023-02-11T00:29:26.341Z,17.93
2023-02-11T00:30:28.723Z,16.45
2023-02-11T00:31:31.175Z,16.39
2023-02-11T00:32:33.179Z,17.74
2023-02-11T00:33:35.043Z,16.80
2023-02-11T00:34:37.521Z,17.42
2023-02-11T00:35:39.459Z,17.17
2023-02-11T00:36:41.843Z,16.52
2023-02-11T00:37:44.118Z,15.51
2023-02-11T00:38:47.125Z,17.02
2023-02-11T00:39:49.023Z,15.23
2023-02-11T00:40:50.998Z,17.22
2023-02-11T00:41:52.897Z,16.45
2023-02-11T00:42:54.769Z,15.32
2023-02-11T00:43:56.794Z,16.49
2023-02-11T00:44:58.694Z,16.71
2023-02-11T00:46:00.644Z,16.21
2023-02-11T00:47:02.801Z,15.81
2023-02-11T00:48:04.987Z,16.31
2023-02-11T00:49:06.988Z,15.79
2023-02-11T00:50:09.869Z,16.57
2023-02-11T00:51:12.602Z,15.31
2023-02-11T00:52:14.494Z,15.31
2023-02-11T00:53:16.468Z,16.32
2023-02-11T00:54:18.437Z,16.09
2023-02-11T00:55:20.588Z,16.85
2023-02-11T00:56:23.181Z,16.95
2023-02-11T00:57:25.919Z,16.52
2023-02-11T00:58:28.293Z,15.68
2023-02-11T00:59:30.178Z,15.98
2023-02-11T01:00:32.494Z,17.05
2023-02-11T01:01:34.672Z,16.59
2023-02-11T01:02:36.972Z,19.95
2023-02-11T01:03:40.090Z,18.31
2023-02-11T01:04:42.372Z,20.39
2023-02-11T01:05:44.298Z,23.35
2023-02-11T01:06:46.378Z,18.18
2023-02-11T01:07:48.279Z,19.68
2023-02-11T01:08:50.159Z,20.32
2023-02-11T01:09:52.132Z,18.15
2023-02-11T01:10:57.000Z,15.95
2023-02-11T01:11:59.212Z,16.78
2023-02-11T01:13:01.395Z,16.36
2023-02-11T01:14:03.601Z,15.57
2023-02-11T01:15:07.938Z,16.06
2023-02-11T01:16:11.932Z,16.28
2023-02-11T01:17:14.896Z,16.61
2023-02-11T01:18:16.940Z,17.01
2023-02-11T01:19:19.072Z,15.80
2023-02-11T01:20:23.961Z,16.47
2023-02-11T01:21:26.621Z,17.15
2023-02-11T01:22:28.621Z,15.61
2023-02-11T01:23:30.966Z,16.78
2023-02-11T01:24:33.279Z,17.78
2023-02-11T01:25:35.328Z,16.44
2023-02-11T01:26:38.218Z,17.49
2023-02-11T01:27:40.732Z,17.77
2023-02-11T01:28:42.823Z,17.69
2023-02-11T01:29:44.722Z,17.77
2023-02-11T01:30:47.767Z,17.30
2023-02-11T01:31:49.858Z,19.71
2023-02-11T01:32:51.979Z,18.18
2023-02-11T01:33:53.966Z,18.84
2023-02-11T01:34:56.503Z,18.65
2023-02-11T01:36:05.303Z,16.87
2023-02-11T01:37:07.287Z,17.62
2023-02-11T01:38:15.820Z,18.47
2023-02-11T01:39:18.416Z,18.78
2023-02-11T01:40:20.614Z,19.25
2023-02-11T01:41:22.613Z,18.34
2023-02-11T01:42:25.213Z,17.47
2023-02-11T01:43:30.221Z,19.57
2023-02-11T01:44:35.735Z,19.39
2023-02-11T01:45:47.704Z,18.46
2023-02-11T01:46:51.420Z,18.91
2023-02-11T01:47:53.502Z,19.89
2023-02-11T01:49:11.358Z,18.95
2023-02-11T01:50:14.771Z,18.74
2023-02-11T01:51:23.398Z,20.07
2023-02-11T01:52:31.990Z,19.18
2023-02-11T01:53:38.194Z,19.87
2023-02-11T01:54:43.955Z,20.21
2023-02-11T01:55:46.082Z,19.54
2023-02-11T01:56:51.516Z,20.77
2023-02-11T01:57:57.204Z,19.62
2023-02-11T01:59:03.168Z,19.63
2023-02-11T02:00:24.608Z,19.57
2023-02-11T02:01:28.936Z,20.22
2023-02-11T02:05:09.676Z,19.19
2023-02-11T02:06:18.547Z,19.86
2023-02-11T02:10:06.774Z,19.94
2023-02-11T02:11:09.644Z,19.74
2023-02-11T02:12:11.653Z,21.43
2023-02-11T02:13:14.333Z,18.71
2023-02-11T02:14:16.979Z,19.89
2023-02-11T02:15:28.610Z,19.56
2023-02-11T02:16:36.217Z,19.90
2023-02-11T02:17:42.045Z,18.48
2023-02-11T02:18:59.802Z,19.47
2023-02-11T02:20:12.027Z,20.38
2023-02-11T02:21:23.596Z,19.41
2023-02-11T02:22:41.277Z,19.79
2023-02-11T02:23:53.013Z,19.54
2023-02-11T02:25:17.071Z,18.68
2023-02-11T02:26:39.513Z,18.94
2023-02-11T02:27:51.498Z,19.02
2023-02-11T02:29:08.120Z,19.59
2023-02-11T02:30:20.393Z,19.32
2023-02-11T02:31:42.995Z,18.61
2023-02-11T02:33:22.367Z,18.44
2023-02-11T02:34:31.635Z,19.29
2023-02-11T02:35:46.528Z,18.91
2023-02-11T02:38:14.110Z,19.17
2023-02-11T02:39:22.792Z,18.99
2023-02-11T02:42:01.950Z,17.27
2023-02-11T02:43:06.123Z,17.51
2023-02-11T02:44:08.730Z,19.48
2023-02-11T02:45:13.077Z,19.26
2023-02-11T02:46:22.309Z,19.03
2023-02-11T02:47:24.333Z,19.76
2023-02-11T02:48:32.760Z,17.17
2023-02-11T02:49:34.669Z,18.90
2023-02-11T02:50:37.618Z,19.27
2023-02-11T02:52:01.548Z,18.56
2023-02-11T02:53:13.283Z,18.39
2023-02-11T02:54:35.668Z,18.48
2023-02-11T02:55:41.403Z,18.87
2023-02-11T02:57:11.839Z,18.59
2023-02-11T02:58:26.765Z,18.84
2023-02-11T02:59:47.866Z,19.44
2023-02-11T03:01:15.280Z,19.88
2023-02-11T03:02:38.551Z,19.26
2023-02-11T03:03:56.045Z,18.27
2023-02-11T03:05:20.146Z,18.35
2023-02-11T03:06:31.820Z,18.24
2023-02-11T03:07:55.929Z,17.74
2023-02-11T03:09:10.312Z,18.27
2023-02-11T03:10:15.561Z,18.74
2023-02-11T03:11:19.801Z,18.83
2023-02-11T03:12:23.812Z,18.49
2023-02-11T03:13:29.496Z,20.56
2023-02-11T03:14:33.012Z,19.98
2023-02-11T03:15:44.321Z,18.62
2023-02-11T03:17:53.597Z,19.98
2023-02-11T03:20:21.250Z,20.16
2023-02-11T03:21:24.663Z,20.37
2023-02-11T03:22:36.208Z,20.32
2023-02-11T03:23:53.463Z,20.23
2023-02-11T03:24:56.183Z,19.82
2023-02-11T03:26:20.398Z,19.94
2023-02-11T03:27:34.846Z,19.60
2023-02-11T03:28:55.910Z,19.02
2023-02-11T03:31:34.301Z,20.06
2023-02-11T03:32:39.851Z,19.34
2023-02-11T03:34:02.671Z,19.86
2023-02-11T03:35:08.352Z,19.88
2023-02-11T03:36:14.360Z,19.12
2023-02-11T03:37:23.170Z,19.52
2023-02-11T03:38:34.977Z,19.23
2023-02-11T03:39:41.131Z,18.74
2023-02-11T03:40:44.491Z,18.80
2023-02-11T03:41:49.238Z,19.23
2023-02-11T03:43:09.818Z,19.74
2023-02-11T03:44:16.016Z,20.14
2023-02-11T03:45:22.444Z,20.46
2023-02-11T03:46:34.215Z,18.51
2023-02-11T03:47:39.937Z,20.28
2023-02-11T03:48:46.592Z,19.68
2023-02-11T03:49:51.215Z,19.67
2023-02-11T03:50:54.891Z,19.24
2023-02-11T03:51:59.552Z,19.19
2023-02-11T03:53:02.902Z,19.58
2023-02-11T03:54:08.650Z,19.85
2023-02-11T03:55:17.082Z,19.09
2023-02-11T03:56:23.084Z,18.11
2023-02-11T03:57:25.242Z,18.95
2023-02-11T03:58:27.228Z,18.87
2023-02-11T03:59:29.099Z,18.99
2023-02-11T04:00:35.010Z,19.15
2023-02-11T04:01:37.152Z,19.65
2023-02-11T04:02:40.232Z,18.03
2023-02-11T04:03:43.740Z,18.91
2023-02-11T04:04:46.862Z,20.09
2023-02-11T04:05:49.130Z,18.11
2023-02-11T04:06:52.846Z,18.74
2023-02-11T04:07:55.095Z,17.83
2023-02-11T04:08:57.114Z,18.47
2023-02-11T04:10:00.511Z,18.58
2023-02-11T04:11:03.327Z,18.10
2023-02-11T04:12:06.888Z,18.83
2023-02-11T04:13:08.794Z,19.40
2023-02-11T04:14:10.814Z,18.61
2023-02-11T04:15:13.502Z,18.47
2023-02-11T04:16:15.952Z,19.81
2023-02-11T04:17:18.182Z,19.04
2023-02-11T04:18:20.098Z,18.49
2023-02-11T04:19:22.218Z,18.07
2023-02-11T04:20:24.191Z,18.17
2023-02-11T04:21:26.068Z,18.37
2023-02-11T04:22:27.978Z,17.85
2023-02-11T04:23:29.889Z,17.29
2023-02-11T04:24:32.064Z,17.67
2023-02-11T04:25:34.097Z,18.19
2023-02-11T04:26:36.188Z,18.56
2023-02-11T04:27:38.372Z,18.41
2023-02-11T04:28:40.250Z,18.56
2023-02-11T04:29:43.637Z,17.39
2023-02-11T04:30:45.891Z,18.71
2023-02-11T04:31:49.282Z,17.09
2023-02-11T04:32:51.611Z,18.37
2023-02-11T04:33:53.527Z,16.43
2023-02-11T04:34:55.446Z,18.10
2023-02-11T04:35:57.308Z,16.79
2023-02-11T04:36:59.610Z,17.92
2023-02-11T04:38:01.469Z,18.37
2023-02-11T04:39:04.466Z,17.25
2023-02-11T04:40:08.474Z,17.71
2023-02-11T04:41:10.382Z,17.34
2023-02-11T04:42:12.616Z,17.76
2023-02-11T04:43:14.711Z,18.25
2023-02-11T04:44:18.385Z,18.42
2023-02-11T04:45:20.282Z,16.93
2023-02-11T04:46:22.722Z,17.37
2023-02-11T04:47:24.926Z,17.68
2023-02-11T04:48:26.930Z,17.67
2023-02-11T04:49:28.960Z,17.59
2023-02-11T04:50:31.152Z,17.92
2023-02-11T04:51:33.747Z,17.95
2023-02-11T04:52:35.632Z,18.01
2023-02-11T04:53:37.883Z,17.71
2023-02-11T04:54:40.364Z,19.06
2023-02-11T04:55:42.368Z,19.09
2023-02-11T04:56:44.619Z,19.78
2023-02-11T04:57:46.591Z,19.75
2023-02-11T04:58:48.790Z,21.75
2023-02-11T04:59:50.664Z,21.01
2023-02-11T05:00:52.950Z,22.03
2023-02-11T05:01:54.979Z,23.19
2023-02-11T05:02:56.855Z,22.23
2023-02-11T05:03:59.026Z,23.43
2023-02-11T05:05:01.791Z,23.38
2023-02-11T05:06:05.230Z,23.46
2023-02-11T05:07:07.156Z,22.54
2023-02-11T05:08:10.547Z,22.96
2023-02-11T05:09:13.671Z,22.84
2023-02-11T05:10:16.259Z,22.11
2023-02-11T05:11:21.099Z,21.59
2023-02-11T05:12:23.215Z,21.70
2023-02-11T05:13:25.081Z,21.54
2023-02-11T05:14:27.110Z,21.22
2023-02-11T05:15:29.397Z,20.93
2023-02-11T05:16:31.952Z,20.67
2023-02-11T05:17:34.000Z,21.11
2023-02-11T05:18:39.541Z,21.27
2023-02-11T05:19:42.278Z,21.39
2023-02-11T05:20:45.057Z,21.51
2023-02-11T05:22:01.433Z,20.60
2023-02-11T05:22:51.122Z,22.08
2023-02-11T05:23:53.107Z,21.38
2023-02-11T05:24:55.016Z,23.32
2023-02-11T05:25:56.891Z,21.40
2023-02-11T05:27:01.276Z,22.68
2023-02-11T05:28:04.859Z,22.86
2023-02-11T05:29:07.011Z,21.51
2023-02-11T05:30:10.777Z,21.67
2023-02-11T05:31:12.860Z,29.88
2023-02-11T05:32:15.248Z,25.07
2023-02-11T05:33:17.150Z,27.15
2023-02-11T05:34:20.044Z,23.49
2023-02-11T05:35:22.656Z,22.72
2023-02-11T05:36:24.850Z,22.44
2023-02-11T05:37:26.823Z,21.16
2023-02-11T05:38:29.263Z,21.04
2023-02-11T05:39:31.260Z,20.50
2023-02-11T05:40:33.679Z,20.14
2023-02-11T05:41:35.892Z,20.41
2023-02-11T05:42:38.308Z,19.81
2023-02-11T05:43:40.215Z,20.89
2023-02-11T05:44:42.193Z,21.23
2023-02-11T05:45:44.410Z,21.37
2023-02-11T05:46:46.630Z,20.33
2023-02-11T05:47:48.610Z,20.37
2023-02-11T05:48:50.482Z,20.46
2023-02-11T05:49:54.730Z,20.17
2023-02-11T05:50:58.567Z,20.32
2023-02-11T05:52:00.833Z,20.08
2023-02-11T05:53:02.927Z,21.15
2023-02-11T05:54:05.423Z,22.01
2023-02-11T05:55:07.721Z,29.44
2023-02-11T05:56:10.242Z,29.57
2023-02-11T05:57:12.845Z,30.47
2023-02-11T05:58:14.818Z,27.21
2023-02-11T05:59:17.101Z,24.41
2023-02-11T06:00:19.791Z,22.91
2023-02-11T06:01:21.723Z,25.99
2023-02-11T06:02:23.755Z,23.62
2023-02-11T06:03:25.805Z,24.54
2023-02-11T06:04:28.254Z,25.60
2023-02-11T06:05:31.278Z,24.43
2023-02-11T06:06:33.466Z,24.61
2023-02-11T06:07:35.501Z,25.12
2023-02-11T06:08:39.314Z,23.91
2023-02-11T06:09:41.665Z,24.52
2023-02-11T06:10:45.211Z,25.25
2023-02-11T06:11:47.134Z,23.67
2023-02-11T06:12:48.998Z,24.21
2023-02-11T06:13:51.217Z,23.06
2023-02-11T06:14:53.303Z,24.43
2023-02-11T06:15:59.762Z,24.77
2023-02-11T06:17:02.389Z,26.25
2023-02-11T06:18:04.955Z,25.44
2023-02-11T06:19:06.986Z,27.20
2023-02-11T06:20:10.628Z,28.14
2023-02-11T06:21:12.953Z,28.19
2023-02-11T06:22:14.830Z,28.11
2023-02-11T06:23:16.698Z,28.96
2023-02-11T06:24:38.260Z,27.47
2023-02-11T06:25:22.434Z,26.40
2023-02-11T06:26:25.438Z,26.59
2023-02-11T06:27:30.003Z,26.39
2023-02-11T06:28:32.849Z,25.39
2023-02-11T06:29:35.457Z,25.81
2023-02-11T06:30:37.650Z,24.46
2023-02-11T06:31:40.104Z,24.05
2023-02-11T06:32:44.919Z,24.81
2023-02-11T06:33:46.078Z,23.75
2023-02-11T06:34:47.964Z,24.71
2023-02-11T06:35:50.710Z,24.43
2023-02-11T06:36:53.167Z,23.51
2023-02-11T06:37:56.187Z,24.40
2023-02-11T06:38:59.132Z,25.11
2023-02-11T06:40:01.140Z,24.15
2023-02-11T06:41:03.302Z,23.09
2023-02-11T06:42:07.847Z,23.25
2023-02-11T06:43:09.211Z,22.93
2023-02-11T06:44:11.213Z,21.75
2023-02-11T06:45:13.102Z,22.97
2023-02-11T06:46:15.842Z,22.67
2023-02-11T06:47:18.004Z,24.41
2023-02-11T06:48:20.780Z,22.28
2023-02-11T06:49:22.769Z,22.73
2023-02-11T06:50:24.903Z,21.78
2023-02-11T06:51:26.888Z,22.94
2023-02-11T06:52:28.990Z,21.83
2023-02-11T06:53:33.684Z,21.55
2023-02-11T06:54:35.599Z,22.80
2023-02-11T06:55:37.506Z,22.17
2023-02-11T06:56:40.670Z,23.03
2023-02-11T06:57:42.712Z,22.33
2023-02-11T06:58:46.141Z,23.14
2023-02-11T06:59:49.638Z,21.37
2023-02-11T07:00:51.915Z,22.22
2023-02-11T07:01:53.851Z,22.64
2023-02-11T07:02:55.853Z,21.75
2023-02-11T07:03:58.229Z,21.03
2023-02-11T07:05:00.246Z,21.56
2023-02-11T07:06:04.255Z,22.77
2023-02-11T07:07:06.464Z,21.20
2023-02-11T07:08:08.740Z,20.32
2023-02-11T07:09:10.616Z,23.19
2023-02-11T07:10:12.911Z,22.49
2023-02-11T07:11:20.656Z,21.63
2023-02-11T07:12:23.708Z,21.22
2023-02-11T07:13:25.881Z,20.27
2023-02-11T07:14:30.663Z,21.14
2023-02-11T07:15:32.601Z,22.71
2023-02-11T07:16:35.360Z,21.95
2023-02-11T07:17:37.592Z,20.59
2023-02-11T07:18:40.082Z,21.08
2023-02-11T07:19:41.989Z,21.23
2023-02-11T07:20:44.671Z,21.31
2023-02-11T07:21:47.028Z,21.91
2023-02-11T07:22:49.046Z,20.65
2023-02-11T07:23:51.261Z,20.39
2023-02-11T07:24:53.296Z,21.41
2023-02-11T07:25:55.302Z,19.65
2023-02-11T07:26:57.776Z,19.90
2023-02-11T07:27:59.767Z,20.50
2023-02-11T07:29:02.662Z,20.11
2023-02-11T07:30:07.531Z,19.91
2023-02-11T07:31:13.823Z,19.63
2023-02-11T07:32:15.873Z,19.36
2023-02-11T07:33:18.198Z,19.49
2023-02-11T07:34:22.780Z,19.88
2023-02-11T07:35:25.972Z,19.34
2023-02-11T07:36:30.508Z,19.17
2023-02-11T07:37:35.764Z,20.60
2023-02-11T07:38:39.149Z,20.31
2023-02-11T07:39:41.152Z,19.36
2023-02-11T07:40:43.252Z,19.22
2023-02-11T07:41:45.149Z,19.33
2023-02-11T07:42:47.242Z,20.01
2023-02-11T07:43:49.631Z,19.65
2023-02-11T07:44:52.208Z,18.61
2023-02-11T07:45:55.404Z,20.24
2023-02-11T07:46:59.507Z,20.71
2023-02-11T07:48:01.402Z,19.26
2023-02-11T07:49:04.649Z,19.77
2023-02-11T07:50:07.239Z,19.47
2023-02-11T07:51:15.540Z,19.11
2023-02-11T07:52:17.821Z,20.19
2023-02-11T07:53:19.718Z,19.79
2023-02-11T07:54:21.851Z,37.62
2023-02-11T07:55:23.916Z,38.21
2023-02-11T07:56:29.050Z,33.47
2023-02-11T07:57:31.094Z,22.16
2023-02-11T07:58:33.842Z,21.92
2023-02-11T07:59:37.240Z,20.04
2023-02-11T08:00:39.601Z,20.48
2023-02-11T08:01:41.574Z,20.93
2023-02-11T08:02:44.312Z,20.80
2023-02-11T08:03:46.337Z,21.81
2023-02-11T08:04:48.742Z,21.41
2023-02-11T08:05:50.976Z,22.69
2023-02-11T08:06:53.444Z,21.78
2023-02-11T08:07:55.508Z,20.97
2023-02-11T08:08:58.226Z,25.66
2023-02-11T08:10:00.230Z,21.26
2023-02-11T08:11:17.722Z,21.63
2023-02-11T08:12:19.640Z,21.97
2023-02-11T08:13:21.540Z,23.14
2023-02-11T08:14:23.469Z,25.18
2023-02-11T08:15:25.586Z,26.29
2023-02-11T08:16:30.750Z,25.05
2023-02-11T08:17:35.104Z,23.91
2023-02-11T08:18:37.122Z,24.12
2023-02-11T08:19:39.188Z,22.37
2023-02-11T08:20:41.670Z,22.66
2023-02-11T08:21:43.882Z,21.85
2023-02-11T08:22:45.782Z,23.73
2023-02-11T08:23:48.163Z,23.35
2023-02-11T08:24:52.325Z,22.91
2023-02-11T08:25:54.036Z,21.98
2023-02-11T08:26:56.335Z,21.77
2023-02-11T08:28:01.001Z,21.45
2023-02-11T08:29:09.750Z,23.21
2023-02-11T08:30:13.489Z,21.93
2023-02-11T08:31:19.407Z,22.95
2023-02-11T08:32:22.256Z,23.64
2023-02-11T08:33:24.290Z,23.71
2023-02-11T08:34:26.165Z,23.59
2023-02-11T08:35:28.282Z,23.27
2023-02-11T08:38:50.100Z,21.65
2023-02-11T08:39:52.136Z,22.22
2023-02-11T08:40:54.146Z,22.83
2023-02-11T08:41:56.124Z,20.42
2023-02-11T08:42:58.015Z,23.12
2023-02-11T08:44:00.790Z,21.06
2023-02-11T08:45:03.085Z,23.01
2023-02-11T08:46:05.362Z,21.57
2023-02-11T08:47:07.436Z,23.07
2023-02-11T08:48:09.302Z,23.02
2023-02-11T08:49:11.216Z,22.01
2023-02-11T08:50:13.436Z,22.35
2023-02-11T08:51:20.825Z,22.41
2023-02-11T08:52:22.776Z,22.36
2023-02-11T08:53:24.824Z,22.78
2023-02-11T08:54:27.177Z,22.98
2023-02-11T08:55:31.568Z,22.64
2023-02-11T08:56:33.988Z,21.38
2023-02-11T08:57:35.983Z,22.27
2023-02-11T08:58:38.673Z,23.79
2023-02-11T08:59:40.607Z,22.24
2023-02-11T09:00:43.184Z,23.37
2023-02-11T09:01:45.289Z,23.85
2023-02-11T09:02:47.236Z,23.72
2023-02-11T09:03:49.577Z,22.08
2023-02-11T09:04:51.901Z,23.25
2023-02-11T09:05:53.908Z,21.81
2023-02-11T09:06:58.876Z,23.18
2023-02-11T09:08:00.841Z,24.00
2023-02-11T09:09:03.435Z,28.35
2023-02-11T09:10:06.493Z,25.06
2023-02-11T09:11:09.839Z,22.71
2023-02-11T09:12:11.858Z,24.72
2023-02-11T09:13:13.878Z,24.23
2023-02-11T09:14:19.341Z,24.21
2023-02-11T09:15:21.348Z,24.82
2023-02-11T09:16:29.927Z,24.58
2023-02-11T09:17:31.964Z,24.36
2023-02-11T09:18:34.036Z,24.25
2023-02-11T09:19:35.968Z,23.27
2023-02-11T09:20:38.882Z,23.35
2023-02-11T09:21:40.882Z,24.87
2023-02-11T09:22:43.318Z,25.53
2023-02-11T09:23:46.113Z,24.34
2023-02-11T09:24:48.047Z,22.63
2023-02-11T09:25:50.342Z,24.13
2023-02-11T09:26:52.897Z,25.11
2023-02-11T09:27:56.412Z,24.18
2023-02-11T09:28:59.082Z,24.55
2023-02-11T09:30:01.344Z,24.91
2023-02-11T09:31:11.838Z,25.05
2023-02-11T09:32:14.050Z,25.67
2023-02-11T09:33:16.467Z,22.97
2023-02-11T09:34:18.360Z,25.35
2023-02-11T09:35:21.336Z,24.56
2023-02-11T09:36:27.022Z,23.85
2023-02-11T09:37:30.347Z,25.06
2023-02-11T09:38:33.031Z,28.47
2023-02-11T09:39:34.960Z,26.80
2023-02-11T09:40:42.637Z,24.51
2023-02-11T09:41:57.477Z,26.44
2023-02-11T09:43:14.785Z,29.72
2023-02-11T09:44:26.209Z,36.93
2023-02-11T09:46:37.975Z,42.03
2023-02-11T09:47:43.935Z,44.66
2023-02-11T09:48:49.726Z,35.60
2023-02-11T09:50:19.369Z,34.39
2023-02-11T09:51:37.455Z,33.12
2023-02-11T09:53:04.785Z,31.23
2023-02-11T09:56:24.562Z,29.86
2023-02-11T09:57:30.398Z,27.47
2023-02-11T09:58:35.316Z,27.74
2023-02-11T09:59:37.460Z,28.32
2023-02-11T10:00:43.401Z,29.59
2023-02-11T10:01:49.247Z,31.07
2023-02-11T10:03:10.182Z,26.84
2023-02-11T10:04:27.848Z,27.01
2023-02-11T10:05:45.459Z,26.02
2023-02-11T10:06:54.394Z,25.33
2023-02-11T10:08:17.025Z,26.14
2023-02-11T10:09:45.328Z,26.24
2023-02-11T10:10:54.264Z,25.09
2023-02-11T10:12:00.892Z,26.12
2023-02-11T10:13:30.453Z,26.44
2023-02-11T10:15:00.647Z,25.00
2023-02-11T10:18:36.127Z,25.03
2023-02-11T10:19:51.642Z,24.55
2023-02-11T10:21:09.338Z,26.16
2023-02-11T10:22:24.202Z,25.03
2023-02-11T10:23:28.395Z,24.31
2023-02-11T10:24:31.120Z,26.68
2023-02-11T10:25:45.144Z,23.84
2023-02-11T10:26:47.288Z,24.43
2023-02-11T10:27:50.915Z,23.81
2023-02-11T10:28:54.910Z,25.06
2023-02-11T10:30:00.664Z,25.11
2023-02-11T10:31:06.703Z,25.66
2023-02-11T10:32:30.751Z,25.00
2023-02-11T10:33:48.764Z,24.13
2023-02-11T10:34:53.780Z,25.87
2023-02-11T10:35:56.729Z,25.50
2023-02-11T10:36:59.166Z,25.87
2023-02-11T10:38:01.057Z,24.59
2023-02-11T10:39:16.235Z,25.22
2023-02-11T10:41:34.956Z,26.32
2023-02-11T10:42:37.377Z,25.47
2023-02-11T10:43:41.642Z,25.78
2023-02-11T10:44:47.425Z,26.95
2023-02-11T10:45:54.123Z,27.41
2023-02-11T10:46:58.806Z,26.43
2023-02-11T10:48:03.918Z,25.77
2023-02-11T10:49:05.940Z,24.25
2023-02-11T10:50:29.213Z,26.88
2023-02-11T10:51:34.652Z,25.97
2023-02-11T10:52:36.838Z,25.28
2023-02-11T10:53:39.358Z,25.45
2023-02-11T10:54:41.572Z,26.83
2023-02-11T10:55:55.257Z,25.47
2023-02-11T10:56:59.104Z,24.47
2023-02-11T10:58:02.723Z,23.98
2023-02-11T10:59:25.111Z,25.50
2023-02-11T11:00:39.339Z,25.85
2023-02-11T11:01:45.194Z,25.16
2023-02-11T11:05:08.207Z,25.45
2023-02-11T11:06:12.628Z,26.09
2023-02-11T11:07:20.784Z,25.59
2023-02-11T11:08:38.547Z,26.43
2023-02-11T11:09:49.942Z,25.32
2023-02-11T11:11:04.786Z,24.64
2023-02-11T11:12:28.746Z,25.17
2023-02-11T11:13:34.149Z,26.17
2023-02-11T11:14:36.283Z,26.73
2023-02-11T11:15:38.389Z,25.35
2023-02-11T11:16:44.458Z,26.25
2023-02-11T11:17:47.608Z,26.86
2023-02-11T11:18:52.734Z,27.03
2023-02-11T11:20:15.188Z,26.57
2023-02-11T11:21:32.974Z,25.71
2023-02-11T11:22:35.068Z,25.93
2023-02-11T11:23:41.272Z,24.44
2023-02-11T11:24:47.726Z,25.97
2023-02-11T11:28:28.610Z,25.71
2023-02-11T11:29:40.501Z,25.91
2023-02-11T11:30:43.368Z,26.45
2023-02-11T11:31:57.766Z,27.39
2023-02-11T11:33:00.940Z,24.92
2023-02-11T11:34:07.144Z,25.54
2023-02-11T11:35:21.799Z,26.62
2023-02-11T11:36:36.712Z,25.11
2023-02-11T11:37:39.029Z,24.69
2023-02-11T11:38:53.789Z,25.73
2023-02-11T11:40:14.560Z,26.25
2023-02-11T11:41:20.136Z,27.58
2023-02-11T11:42:34.055Z,30.32
2023-02-11T11:43:36.199Z,26.18
2023-02-11T11:44:38.189Z,25.74
2023-02-11T11:47:12.525Z,26.58
2023-02-11T11:48:35.760Z,25.29
2023-02-11T11:49:58.894Z,25.93
2023-02-11T11:51:07.566Z,26.16
2023-02-11T11:52:42.192Z,27.81
2023-02-11T11:54:06.278Z,27.66
2023-02-11T11:55:17.709Z,27.47
2023-02-11T11:56:35.890Z,25.92
2023-02-11T11:57:39.422Z,28.37
2023-02-11T11:58:42.161Z,27.87
2023-02-11T11:59:44.874Z,26.61
2023-02-11T12:00:53.537Z,25.79
2023-02-11T12:02:02.341Z,27.28
2023-02-11T12:04:50.442Z,27.39
2023-02-11T12:06:05.288Z,25.99
2023-02-11T12:07:11.056Z,24.76
2023-02-11T12:08:22.888Z,24.61
2023-02-11T12:09:43.910Z,24.43
2023-02-11T12:10:53.400Z,23.96
2023-02-11T12:12:05.126Z,23.49
2023-02-11T12:14:39.468Z,24.01
2023-02-11T12:16:03.158Z,22.36
2023-02-11T12:17:27.051Z,23.57
2023-02-11T12:18:51.272Z,22.42
2023-02-11T12:20:03.390Z,23.11
2023-02-11T12:21:20.570Z,24.04
2023-02-11T12:22:26.461Z,21.86
2023-02-11T12:23:53.279Z,22.70
2023-02-11T12:25:18.952Z,24.57
2023-02-11T12:29:05.910Z,25.01
2023-02-11T12:30:15.122Z,30.23
2023-02-11T12:31:38.953Z,24.73
2023-02-11T12:32:56.849Z,28.50
2023-02-11T12:34:08.136Z,31.15
2023-02-11T12:35:38.380Z,31.14
2023-02-11T12:37:06.809Z,24.82
2023-02-11T12:38:18.027Z,26.25
2023-02-11T12:39:49.673Z,25.89
2023-02-11T12:41:24.836Z,25.36
2023-02-11T12:42:46.064Z,22.61
2023-02-11T12:43:49.910Z,22.67
2023-02-11T12:45:13.533Z,23.91
2023-02-11T12:46:25.601Z,22.88
2023-02-11T12:47:48.550Z,23.54
2023-02-11T12:49:11.275Z,24.43
2023-02-11T12:50:27.226Z,24.70
2023-02-11T12:51:39.087Z,23.25
2023-02-11T12:53:03.034Z,24.78
2023-02-11T12:54:26.521Z,24.75
2023-02-11T12:55:32.562Z,24.76
2023-02-11T12:56:56.737Z,22.76
2023-02-11T12:58:00.932Z,24.53
2023-02-11T12:59:06.448Z,24.49
2023-02-11T13:00:21.929Z,24.55
2023-02-11T13:01:30.051Z,27.09
2023-02-11T13:02:41.651Z,27.43
2023-02-11T13:04:59.915Z,24.62
2023-02-11T13:07:12.968Z,26.02
2023-02-11T13:08:21.421Z,24.73
2023-02-11T13:09:27.155Z,22.54
2023-02-11T13:12:49.786Z,22.86
2023-02-11T13:15:15.210Z,23.59
2023-02-11T13:16:30.026Z,24.23
2023-02-11T13:17:38.826Z,22.89
2023-02-11T13:18:53.279Z,23.76
2023-02-11T13:19:59.039Z,23.01
2023-02-11T13:21:23.308Z,22.58
2023-02-11T13:23:48.519Z,22.90
2023-02-11T13:24:56.951Z,22.58
2023-02-11T13:26:05.317Z,22.02
2023-02-11T13:27:32.441Z,22.64
2023-02-11T13:28:47.500Z,22.64
2023-02-11T13:30:10.095Z,22.36
2023-02-11T13:31:13.404Z,21.28
2023-02-11T13:32:15.562Z,21.80
2023-02-11T13:33:20.624Z,21.64
2023-02-11T13:34:26.458Z,22.36
2023-02-11T13:35:41.118Z,21.67
2023-02-11T13:36:46.989Z,21.84
2023-02-11T13:37:48.926Z,19.04
2023-02-11T13:39:02.850Z,20.61
2023-02-11T13:40:29.308Z,20.93
2023-02-11T13:41:41.507Z,20.84
2023-02-11T13:42:53.105Z,21.02
2023-02-11T13:44:06.814Z,20.60
2023-02-11T13:45:24.335Z,21.48
2023-02-11T13:46:29.825Z,20.25
2023-02-11T13:47:35.374Z,20.19
2023-02-11T13:48:40.585Z,20.05
2023-02-11T13:49:46.268Z,19.65
2023-02-11T13:50:54.624Z,20.07
2023-02-11T13:51:59.090Z,19.84
2023-02-11T13:53:03.931Z,19.52
2023-02-11T13:54:08.311Z,19.32
2023-02-11T13:55:17.071Z,18.31
2023-02-11T13:56:34.956Z,18.68
2023-02-11T13:57:38.391Z,19.10
2023-02-11T13:58:49.802Z,17.96
2023-02-11T14:00:59.129Z,18.66
2023-02-11T14:02:04.890Z,19.65
2023-02-11T14:03:13.756Z,20.33
2023-02-11T14:04:24.805Z,19.12
2023-02-11T14:05:32.033Z,18.45
2023-02-11T14:06:36.611Z,17.91
2023-02-11T14:07:38.638Z,18.44
2023-02-11T14:08:44.386Z,17.96
2023-02-11T14:09:46.503Z,23.45
2023-02-11T14:10:51.229Z,23.21
2023-02-11T14:11:56.207Z,23.62
2023-02-11T14:13:07.557Z,20.83
2023-02-11T14:15:40.254Z,19.63
2023-02-11T14:17:01.499Z,19.31
2023-02-11T14:18:23.896Z,16.97
2023-02-11T14:19:35.890Z,16.67
2023-02-11T14:20:42.436Z,16.81
2023-02-11T14:21:46.149Z,17.31
2023-02-11T14:22:50.348Z,14.93
2023-02-11T14:23:55.352Z,15.99
2023-02-11T14:25:02.488Z,15.21
2023-02-11T14:26:23.370Z,15.41
2023-02-11T14:27:32.029Z,14.13
2023-02-11T14:28:35.720Z,14.88
2023-02-11T14:30:02.896Z,13.79
2023-02-11T14:31:11.660Z,18.48
2023-02-11T14:32:20.083Z,16.94
2023-02-11T14:33:59.505Z,19.36
2023-02-11T14:35:14.010Z,13.81
2023-02-11T14:36:34.802Z,13.83
2023-02-11T14:38:13.702Z,13.17
2023-02-11T14:39:19.574Z,12.70
2023-02-11T14:40:33.935Z,13.88
2023-02-11T14:41:39.617Z,12.78
2023-02-11T14:42:41.950Z,13.19
2023-02-11T14:43:47.997Z,12.30
2023-02-11T14:44:52.143Z,13.19
2023-02-11T14:45:56.494Z,13.40
2023-02-11T14:46:59.565Z,13.16
2023-02-11T14:48:16.196Z,14.34
2023-02-11T14:49:30.742Z,13.67
2023-02-11T14:50:52.385Z,14.85
2023-02-11T14:53:14.371Z,17.64
2023-02-11T14:54:19.872Z,12.89
2023-02-11T14:55:34.567Z,13.87
2023-02-11T14:56:37.045Z,14.12
2023-02-11T14:57:38.949Z,12.60
2023-02-11T14:58:44.710Z,13.44
2023-02-11T14:59:59.499Z,12.11